Observation data for Northfield on 02/14/2020      Previous  Date  Next       Current Mesonet Observations  Soil Data  Daily Summary Page  Observations in Plain Language
KNOR 140600Z 08006KT M05/M11 A3037 RMK A01 T10481105  RH  064%=      5-min Rain = 0
KNOR 140605Z 08005KT M05/M11 A3037 RMK A01 T10491105  RH  065%=      5-min Rain = 0
KNOR 140610Z 07004KT M05/M10 A3037 RMK A01 T10511104  RH  066%=      5-min Rain = 0
KNOR 140615Z 07005KT M05/M10 A3037 RMK A01 T10511104  RH  066%=      5-min Rain = 0
KNOR 140620Z 08005KT M05/M10 A3037 RMK A01 T10521104  RH  067%=      5-min Rain = 0
KNOR 140625Z 08005KT M05/M10 A3037 RMK A01 T10511103  RH  067%=      5-min Rain = 0
KNOR 140630Z 08005KT M05/M10 A3037 RMK A01 T10511104  RH  066%=      5-min Rain = 0
KNOR 140635Z 09005KT M05/M10 A3037 RMK A01 T10521104  RH  066%=      5-min Rain = 0
KNOR 140640Z 09005KT M05/M10 A3037 RMK A01 T10531104  RH  067%=      5-min Rain = 0
KNOR 140645Z 09004KT M05/M10 A3037 RMK A01 T10531104  RH  067%=      5-min Rain = 0
KNOR 140650Z 09005KT M05/M10 A3037 RMK A01 T10531104  RH  067%=      5-min Rain = 0
KNOR 140655Z 09005KT M05/M10 A3037 RMK A01 T10541104  RH  067%=      5-min Rain = 0
KNOR 140700Z 08004KT M05/M10 A3037 RMK A01 T10541104  RH  068%=      5-min Rain = 0
KNOR 140705Z 08004KT M06/M10 A3037 RMK A01 T10561104  RH  068%=      5-min Rain = 0
KNOR 140710Z 07004KT M06/M10 A3037 RMK A01 T10571104  RH  069%=      5-min Rain = 0
KNOR 140715Z 07004KT M06/M10 A3037 RMK A01 T10571104  RH  069%=      5-min Rain = 0
KNOR 140720Z 07005KT M06/M10 A3037 RMK A01 T10571104  RH  069%=      5-min Rain = 0
KNOR 140725Z 07005KT M06/M10 A3038 RMK A01 T10571104  RH  069%=      5-min Rain = 0
KNOR 140730Z 07005KT M06/M10 A3038 RMK A01 T10571104  RH  069%=      5-min Rain = 0
KNOR 140735Z 07004KT M06/M10 A3037 RMK A01 T10581104  RH  070%=      5-min Rain = 0
KNOR 140740Z 07004KT M06/M10 A3038 RMK A01 T10591104  RH  070%=      5-min Rain = 0
KNOR 140745Z 07005KT M06/M10 A3038 RMK A01 T10591104  RH  070%=      5-min Rain = 0
KNOR 140750Z 06004KT M06/M10 A3038 RMK A01 T10601104  RH  071%=      5-min Rain = 0
KNOR 140755Z 07005KT M06/M10 A3038 RMK A01 T10601104  RH  071%=      5-min Rain = 0
KNOR 140800Z 07005KT M06/M10 A3038 RMK A01 T10591104  RH  070%=      5-min Rain = 0
KNOR 140805Z 08005KT M06/M11 A3038 RMK A01 T10591105  RH  069%=      5-min Rain = 0
KNOR 140810Z 08004KT M06/M11 A3038 RMK A01 T10601105  RH  070%=      5-min Rain = 0
KNOR 140815Z 07004KT M06/M11 A3038 RMK A01 T10611105  RH  071%=      5-min Rain = 0
KNOR 140820Z 07004KT M06/M11 A3038 RMK A01 T10621105  RH  071%=      5-min Rain = 0
KNOR 140825Z 05003KT M06/M10 A3038 RMK A01 T10621104  RH  072%=      5-min Rain = 0
KNOR 140830Z 05003KT M07/M10 A3038 RMK A01 T10651104  RH  073%=      5-min Rain = 0
KNOR 140835Z 06004KT M07/M10 A3039 RMK A01 T10651104  RH  073%=      5-min Rain = 0
KNOR 140840Z 08005KT M06/M11 A3038 RMK A01 T10631105  RH  072%=      5-min Rain = 0
KNOR 140845Z 08004KT M06/M11 A3038 RMK A01 T10621105  RH  071%=      5-min Rain = 0
KNOR 140850Z 08004KT M06/M11 A3038 RMK A01 T10621105  RH  071%=      5-min Rain = 0
KNOR 140855Z 08004KT M06/M11 A3039 RMK A01 T10641106  RH  072%=      5-min Rain = 0
KNOR 140900Z 07004KT M06/M11 A3039 RMK A01 T10641105  RH  072%=      5-min Rain = 0
KNOR 140905Z 08004KT M07/M11 A3039 RMK A01 T10651105  RH  073%=      5-min Rain = 0
KNOR 140910Z 07004KT M07/M11 A3039 RMK A01 T10651105  RH  073%=      5-min Rain = 0
KNOR 140915Z 07003KT M07/M11 A3039 RMK A01 T10651106  RH  073%=      5-min Rain = 0
KNOR 140920Z 06003KT M07/M11 A3039 RMK A01 T10671106  RH  073%=      5-min Rain = 0
KNOR 140925Z 06003KT M07/M11 A3038 RMK A01 T10681105  RH  074%=      5-min Rain = 0
KNOR 140930Z 06003KT M07/M11 A3038 RMK A01 T10681105  RH  075%=      5-min Rain = 0
KNOR 140935Z 05003KT M07/M11 A3038 RMK A01 T10681105  RH  075%=      5-min Rain = 0
KNOR 140940Z 03003KT M07/M10 A3039 RMK A01 T10701104  RH  076%=      5-min Rain = 0
KNOR 140945Z 02004KT M07/M10 A3039 RMK A01 T10711103  RH  077%=      5-min Rain = 0
KNOR 140950Z 02004KT M07/M10 A3039 RMK A01 T10701103  RH  077%=      5-min Rain = 0
KNOR 140955Z 02004KT M07/M10 A3039 RMK A01 T10691103  RH  076%=      5-min Rain = 0
KNOR 141000Z 02004KT M07/M10 A3039 RMK A01 T10691103  RH  077%=      5-min Rain = 0
KNOR 141005Z 01003KT M07/M10 A3039 RMK A01 T10701103  RH  077%=      5-min Rain = 0
KNOR 141010Z 02004KT M07/M10 A3039 RMK A01 T10711102  RH  078%=      5-min Rain = 0
KNOR 141015Z 02004KT M07/M10 A3039 RMK A01 T10711102  RH  078%=      5-min Rain = 0
KNOR 141020Z 03003KT M07/M10 A3039 RMK A01 T10711102  RH  078%=      5-min Rain = 0
KNOR 141025Z 04003KT M07/M10 A3039 RMK A01 T10701101  RH  078%=      5-min Rain = 0
KNOR 141030Z 04003KT M07/M10 A3039 RMK A01 T10691100  RH  078%=      5-min Rain = 0
KNOR 141035Z 04003KT M07/M10 A3039 RMK A01 T10681099  RH  078%=      5-min Rain = 0
KNOR 141040Z 04004KT M07/M10 A3039 RMK A01 T10671098  RH  078%=      5-min Rain = 0
KNOR 141045Z 04004KT M07/M10 A3039 RMK A01 T10661098  RH  078%=      5-min Rain = 0
KNOR 141050Z 05004KT M07/M10 A3039 RMK A01 T10671098  RH  078%=      5-min Rain = 0
KNOR 141055Z 05004KT M07/M10 A3039 RMK A01 T10681099  RH  078%=      5-min Rain = 0
KNOR 141100Z 05004KT M07/M10 A3039 RMK A01 T10691100  RH  078%=      5-min Rain = 0
KNOR 141105Z 06004KT M07/M10 A3039 RMK A01 T10701102  RH  078%=      5-min Rain = 0
KNOR 141110Z 06004KT M07/M10 A3039 RMK A01 T10711103  RH  077%=      5-min Rain = 0
KNOR 141115Z 06004KT M07/M10 A3039 RMK A01 T10711104  RH  077%=      5-min Rain = 0
KNOR 141120Z 07004KT M07/M11 A3039 RMK A01 T10711106  RH  076%=      5-min Rain = 0
KNOR 141125Z 07004KT M07/M11 A3039 RMK A01 T10711106  RH  075%=      5-min Rain = 0
KNOR 141130Z 06004KT M07/M11 A3039 RMK A01 T10711107  RH  075%=      5-min Rain = 0
KNOR 141135Z 06004KT M07/M11 A3039 RMK A01 T10711107  RH  075%=      5-min Rain = 0
KNOR 141140Z 06004KT M07/M11 A3039 RMK A01 T10721107  RH  076%=      5-min Rain = 0
KNOR 141145Z 06004KT M07/M11 A3039 RMK A01 T10721107  RH  076%=      5-min Rain = 0
KNOR 141150Z 06004KT M07/M11 A3039 RMK A01 T10721107  RH  075%=      5-min Rain = 0
KNOR 141155Z 07003KT M07/M11 A3039 RMK A01 T10721107  RH  076%=      5-min Rain = 0
KNOR 141200Z 07003KT M07/M11 A3039 RMK A01 T10731107  RH  076%=      5-min Rain = 0
KNOR 141205Z 06003KT M07/M11 A3039 RMK A01 T10731107  RH  076%=      5-min Rain = 0
KNOR 141210Z 05003KT M07/M11 A3039 RMK A01 T10741107  RH  077%=      5-min Rain = 0
KNOR 141215Z 05003KT M07/M11 A3038 RMK A01 T10741107  RH  077%=      5-min Rain = 0
KNOR 141220Z 05003KT M07/M11 A3038 RMK A01 T10731107  RH  077%=      5-min Rain = 0
KNOR 141225Z 05003KT M07/M11 A3038 RMK A01 T10731107  RH  077%=      5-min Rain = 0
KNOR 141230Z 05003KT M07/M11 A3038 RMK A01 T10741107  RH  077%=      5-min Rain = 0
KNOR 141235Z 04003KT M08/M11 A3038 RMK A01 T10751106  RH  078%=      5-min Rain = 0
KNOR 141240Z 04003KT M08/M11 A3039 RMK A01 T10751105  RH  078%=      5-min Rain = 0
KNOR 141245Z 04003KT M08/M10 A3039 RMK A01 T10751104  RH  079%=      5-min Rain = 0
KNOR 141250Z 05003KT M07/M10 A3039 RMK A01 T10731102  RH  080%=      5-min Rain = 0
KNOR 141255Z 04003KT M07/M10 A3039 RMK A01 T10711099  RH  080%=      5-min Rain = 0
KNOR 141300Z 05003KT M07/M10 A3039 RMK A01 T10691097  RH  080%=      5-min Rain = 0
KNOR 141305Z 05003KT M07/M10 A3039 RMK A01 T10671096  RH  080%=      5-min Rain = 0
KNOR 141310Z 06002KT M07/M10 A3039 RMK A01 T10661095  RH  079%=      5-min Rain = 0
KNOR 141315Z 05002KT M07/M10 A3039 RMK A01 T10651096  RH  078%=      5-min Rain = 0
KNOR 141320Z 05002KT M06/M10 A3039 RMK A01 T10641096  RH  078%=      5-min Rain = 0
KNOR 141325Z 05001KT M06/M10 A3039 RMK A01 T10641097  RH  077%=      5-min Rain = 0
KNOR 141330Z 06002KT M06/M10 A3039 RMK A01 T10641098  RH  077%=      5-min Rain = 0
KNOR 141335Z 06002KT M06/M10 A3039 RMK A01 T10641097  RH  077%=      5-min Rain = 0
KNOR 141340Z 06002KT M06/M10 A3039 RMK A01 T10641099  RH  076%=      5-min Rain = 0
KNOR 141345Z 07001KT M06/M10 A3039 RMK A01 T10631098  RH  076%=      5-min Rain = 0
KNOR 141350Z 06001KT M06/M10 A304 RMK A01 T10621096  RH  077%=      5-min Rain = 0
KNOR 141355Z 09001KT M06/M10 A304 RMK A01 T10601095  RH  077%=      5-min Rain = 0
KNOR 141400Z 09002KT M06/M10 A304 RMK A01 T10601097  RH  075%=      5-min Rain = 0
KNOR 141405Z 08003KT M06/M10 A304 RMK A01 T10601099  RH  074%=      5-min Rain = 0
KNOR 141410Z 09004KT M06/M10 A304 RMK A01 T10601100  RH  073%=      5-min Rain = 0
KNOR 141415Z 08003KT M06/M10 A3041 RMK A01 T10601099  RH  073%=      5-min Rain = 0
KNOR 141420Z 09003KT M06/M10 A3041 RMK A01 T10601099  RH  073%=      5-min Rain = 0
KNOR 141425Z 08002KT M06/M09 A3041 RMK A01 T10581094  RH  075%=      5-min Rain = 0
KNOR 141430Z 09004KT M06/M10 A3041 RMK A01 T10571096  RH  074%=      5-min Rain = 0
KNOR 141435Z 09004KT M06/M10 A3041 RMK A01 T10571098  RH  072%=      5-min Rain = 0
KNOR 141440Z 09004KT M06/M10 A3041 RMK A01 T10561098  RH  072%=      5-min Rain = 0
KNOR 141445Z 09003KT M06/M10 A3041 RMK A01 T10551097  RH  072%=      5-min Rain = 0
KNOR 141450Z 10003KT M06/M10 A3041 RMK A01 T10551099  RH  071%=      5-min Rain = 0
KNOR 141455Z 11004KT M05/M10 A3041 RMK A01 T10531098  RH  071%=      5-min Rain = 0
KNOR 141500Z 10004KT M05/M10 A3041 RMK A01 T10521097  RH  070%=      5-min Rain = 0
KNOR 141505Z 12003KT M05/M10 A3041 RMK A01 T10521097  RH  071%=      5-min Rain = 0
KNOR 141510Z 12004KT M05/M10 A3041 RMK A01 T10501095  RH  070%=      5-min Rain = 0
KNOR 141515Z 12005KT M05/M10 A3041 RMK A01 T10501096  RH  070%=      5-min Rain = 0
KNOR 141520Z 11004KT M05/M10 A3041 RMK A01 T10491097  RH  069%=      5-min Rain = 0
KNOR 141525Z 13004KT M05/M10 A3041 RMK A01 T10481097  RH  069%=      5-min Rain = 0
KNOR 141530Z 12004KT M05/M10 A3041 RMK A01 T10461095  RH  068%=      5-min Rain = 0
KNOR 141535Z 14004KT M05/M10 A3041 RMK A01 T10451095  RH  068%=      5-min Rain = 0
KNOR 141540Z 12003KT M05/M10 A3041 RMK A01 T10461095  RH  068%=      5-min Rain = 0
KNOR 141545Z 13003KT M04/M09 A3041 RMK A01 T10431093  RH  068%=      5-min Rain = 0
KNOR 141550Z 13004KT M04/M09 A3041 RMK A01 T10441093  RH  068%=      5-min Rain = 0
KNOR 141555Z 14003KT M04/M09 A3041 RMK A01 T10431092  RH  068%=      5-min Rain = 0
KNOR 141600Z 14003KT M04/M09 A3041 RMK A01 T10401090  RH  068%=      5-min Rain = 0
KNOR 141605Z 14005KT M04/M09 A3041 RMK A01 T10391092  RH  067%=      5-min Rain = 0
KNOR 141610Z 14005KT M04/M09 A3041 RMK A01 T10361092  RH  065%=      5-min Rain = 0
KNOR 141615Z 14005KT M03/M09 A3041 RMK A01 T10331092  RH  064%=      5-min Rain = 0
KNOR 141620Z 15005KT M03/M09 A304 RMK A01 T10341093  RH  064%=      5-min Rain = 0
KNOR 141625Z 14006KT M03/M09 A304 RMK A01 T10331090  RH  064%=      5-min Rain = 0
KNOR 141630Z 14008KT M03/M09 A304 RMK A01 T10301089  RH  064%=      5-min Rain = 0
KNOR 141635Z 15007KT M03/M09 A304 RMK A01 T10301088  RH  064%=      5-min Rain = 0
KNOR 141640Z 18007KT M03/M09 A304 RMK A01 T10311088  RH  065%=      5-min Rain = 0
KNOR 141645Z 17007KT M03/M09 A304 RMK A01 T10311086  RH  066%=      5-min Rain = 0
KNOR 141650Z 15006KT M03/M08 A304 RMK A01 T10281084  RH  065%=      5-min Rain = 0
KNOR 141655Z 17007KT M03/M08 A304 RMK A01 T10271083  RH  065%=      5-min Rain = 0
KNOR 141700Z 16007KT M02/M08 A304 RMK A01 T10241080  RH  066%=      5-min Rain = 0
KNOR 141705Z 17007KT M02/M08 A3039 RMK A01 T10231080  RH  065%=      5-min Rain = 0
KNOR 141710Z 15007KT M02/M08 A3039 RMK A01 T10231078  RH  066%=      5-min Rain = 0
KNOR 141715Z 17007KT M02/M08 A3039 RMK A01 T10211075  RH  067%=      5-min Rain = 0
KNOR 141720Z 18006KT M02/M07 A3039 RMK A01 T10201073  RH  067%=      5-min Rain = 0
KNOR 141725Z 19007KT M02/M07 A3039 RMK A01 T10171073  RH  066%=      5-min Rain = 0
KNOR 141730Z 19006KT M02/M07 A3038 RMK A01 T10151072  RH  065%=      5-min Rain = 0
KNOR 141735Z 19006KT M02/M07 A3038 RMK A01 T10161073  RH  065%=      5-min Rain = 0
KNOR 141740Z 19005KT M01/M07 A3038 RMK A01 T10141072  RH  065%=      5-min Rain = 0
KNOR 141745Z 17005KT M01/M07 A3038 RMK A01 T10091067  RH  064%=      5-min Rain = 0
KNOR 141750Z 18008KT M00/M06 A3037 RMK A01 T10011060  RH  065%=      5-min Rain = 0
KNOR 141755Z 17008KT M00/M06 A3037 RMK A01 T10031061  RH  065%=      5-min Rain = 0
KNOR 141800Z 18008KT 00/M06 A3036 RMK A01 T00011058  RH  065%=      5-min Rain = 0
KNOR 141805Z 18007G12KT 01/M06 A3036 RMK A01 T00071056  RH  063%=      5-min Rain = 0
KNOR 141810Z 18009G14KT 01/M06 A3035 RMK A01 T00061057  RH  063%=      5-min Rain = 0
KNOR 141815Z 18007KT 01/M06 A3035 RMK A01 T00081055  RH  063%=      5-min Rain = 0
KNOR 141820Z 19009G17KT 02/M05 A3035 RMK A01 T00161051  RH  061%=      5-min Rain = 0
KNOR 141825Z 19008KT 01/M05 A3035 RMK A01 T00121054  RH  062%=      5-min Rain = 0
KNOR 141830Z 19008G16KT 02/M05 A3034 RMK A01 T00151050  RH  062%=      5-min Rain = 0
KNOR 141835Z 20009KT 02/M05 A3033 RMK A01 T00221049  RH  060%=      5-min Rain = 0
KNOR 141840Z 18010KT 02/M05 A3033 RMK A01 T00211050  RH  059%=      5-min Rain = 0
KNOR 141845Z 20010G15KT 02/M05 A3033 RMK A01 T00241048  RH  059%=      5-min Rain = 0
KNOR 141850Z 18009KT 03/M05 A3033 RMK A01 T00261047  RH  059%=      5-min Rain = 0
KNOR 141855Z 18010G16KT 04/M05 A3032 RMK A01 T00351045  RH  056%=      5-min Rain = 0
KNOR 141900Z 18011KT 03/M04 A3032 RMK A01 T00331044  RH  057%=      5-min Rain = 0
KNOR 141905Z 19009G14KT 04/M04 A3031 RMK A01 T00371044  RH  056%=      5-min Rain = 0
KNOR 141910Z 19011G16KT 04/M04 A3031 RMK A01 T00371043  RH  056%=      5-min Rain = 0
KNOR 141915Z 18008G14KT 04/M04 A303 RMK A01 T00411042  RH  055%=      5-min Rain = 0
KNOR 141920Z 18010G15KT 04/M04 A303 RMK A01 T00421042  RH  054%=      5-min Rain = 0
KNOR 141925Z 18009KT 04/M04 A3029 RMK A01 T00411043  RH  054%=      5-min Rain = 0
KNOR 141930Z 15009G14KT 04/M04 A3029 RMK A01 T00431041  RH  055%=      5-min Rain = 0
KNOR 141935Z 19009G15KT 05/M04 A3029 RMK A01 T00491039  RH  053%=      5-min Rain = 0
KNOR 141940Z 19011KT 05/M04 A3028 RMK A01 T00501038  RH  053%=      5-min Rain = 0
KNOR 141945Z 18011G18KT 05/M04 A3028 RMK A01 T00531038  RH  052%=      5-min Rain = 0
KNOR 141950Z 17009G16KT 05/M04 A3028 RMK A01 T00501039  RH  053%=      5-min Rain = 0
KNOR 141955Z 17010KT 05/M04 A3028 RMK A01 T00541037  RH  052%=      5-min Rain = 0
KNOR 142000Z 16010G16KT 06/M04 A3027 RMK A01 T00571036  RH  051%=      5-min Rain = 0
KNOR 142005Z 21008G15KT 06/M03 A3027 RMK A01 T00611034  RH  051%=      5-min Rain = 0
KNOR 142010Z 18009G17KT 06/M03 A3026 RMK A01 T00641032  RH  050%=      5-min Rain = 0
KNOR 142015Z 20011G18KT 06/M03 A3026 RMK A01 T00611034  RH  051%=      5-min Rain = 0
KNOR 142020Z 18011KT 07/M03 A3025 RMK A01 T00661030  RH  051%=      5-min Rain = 0
KNOR 142025Z 17010G16KT 07/M03 A3025 RMK A01 T00661031  RH  050%=      5-min Rain = 0
KNOR 142030Z 18010G17KT 07/M03 A3025 RMK A01 T00681030  RH  050%=      5-min Rain = 0
KNOR 142035Z 19010G15KT 07/M03 A3025 RMK A01 T00691029  RH  050%=      5-min Rain = 0
KNOR 142040Z 17010KT 07/M03 A3024 RMK A01 T00711030  RH  049%=      5-min Rain = 0
KNOR 142045Z 18010G15KT 07/M03 A3024 RMK A01 T00701030  RH  049%=      5-min Rain = 0
KNOR 142050Z 20010KT 08/M03 A3024 RMK A01 T00751028  RH  048%=      5-min Rain = 0
KNOR 142055Z 20011G17KT 08/M03 A3023 RMK A01 T00761028  RH  048%=      5-min Rain = 0
KNOR 142100Z 20011KT 08/M03 A3023 RMK A01 T00761028  RH  048%=      5-min Rain = 0
KNOR 142105Z 19012KT 08/M03 A3023 RMK A01 T00751029  RH  048%=      5-min Rain = 0
KNOR 142110Z 20010G16KT 08/M03 A3023 RMK A01 T00771028  RH  048%=      5-min Rain = 0
KNOR 142115Z 19011G17KT 08/M03 A3023 RMK A01 T00771028  RH  048%=      5-min Rain = 0
KNOR 142120Z 18011G16KT 08/M03 A3022 RMK A01 T00751028  RH  048%=      5-min Rain = 0
KNOR 142125Z 18011KT 08/M03 A3022 RMK A01 T00761027  RH  048%=      5-min Rain = 0
KNOR 142130Z 19013G18KT 08/M03 A3022 RMK A01 T00791026  RH  048%=      5-min Rain = 0
KNOR 142135Z 18013G18KT 08/M03 A3022 RMK A01 T00791025  RH  048%=      5-min Rain = 0
KNOR 142140Z 18012G17KT 08/M02 A3022 RMK A01 T00791024  RH  048%=      5-min Rain = 0
KNOR 142145Z 20012KT 08/M02 A3021 RMK A01 T00801024  RH  048%=      5-min Rain = 0
KNOR 142150Z 20013KT 08/M02 A3021 RMK A01 T00801023  RH  049%=      5-min Rain = 0
KNOR 142155Z 20012KT 08/M02 A3021 RMK A01 T00831021  RH  048%=      5-min Rain = 0
KNOR 142200Z 20012G19KT 08/M02 A302 RMK A01 T00831021  RH  048%=      5-min Rain = 0
KNOR 142205Z 19013G18KT 08/M02 A302 RMK A01 T00821020  RH  049%=      5-min Rain = 0
KNOR 142210Z 18014KT 08/M02 A302 RMK A01 T00811020  RH  049%=      5-min Rain = 0
KNOR 142215Z 19013KT 08/M02 A302 RMK A01 T00801020  RH  050%=      5-min Rain = 0
KNOR 142220Z 19013G18KT 08/M02 A3019 RMK A01 T00801019  RH  050%=      5-min Rain = 0
KNOR 142225Z 19014KT 08/M02 A3019 RMK A01 T00781020  RH  050%=      5-min Rain = 0
KNOR 142230Z 18014G19KT 08/M02 A3019 RMK A01 T00791019  RH  050%=      5-min Rain = 0
KNOR 142235Z 18014G19KT 08/M02 A3019 RMK A01 T00791018  RH  051%=      5-min Rain = 0
KNOR 142240Z 18014G19KT 08/M02 A3019 RMK A01 T00791018  RH  051%=      5-min Rain = 0
KNOR 142245Z 20016KT 08/M02 A3019 RMK A01 T00771018  RH  052%=      5-min Rain = 0
KNOR 142250Z 18013G18KT 08/M02 A3019 RMK A01 T00771017  RH  052%=      5-min Rain = 0
KNOR 142255Z 18014G19KT 08/M02 A3019 RMK A01 T00771017  RH  052%=      5-min Rain = 0
KNOR 142300Z 19015KT 07/M02 A3019 RMK A01 T00741017  RH  053%=      5-min Rain = 0
KNOR 142305Z 20013G18KT 07/M02 A3019 RMK A01 T00741017  RH  053%=      5-min Rain = 0
KNOR 142310Z 20011G17KT 08/M02 A3018 RMK A01 T00751016  RH  053%=      5-min Rain = 0
KNOR 142315Z 18014G21KT 08/M02 A3018 RMK A01 T00751015  RH  053%=      5-min Rain = 0
KNOR 142320Z 19013G18KT 07/M02 A3018 RMK A01 T00731015  RH  054%=      5-min Rain = 0
KNOR 142325Z 20014G21KT 07/M01 A3018 RMK A01 T00721014  RH  055%=      5-min Rain = 0
KNOR 142330Z 20013G18KT 07/M01 A3018 RMK A01 T00691013  RH  056%=      5-min Rain = 0
KNOR 142335Z 19014KT 07/M01 A3018 RMK A01 T00651013  RH  058%=      5-min Rain = 0
KNOR 142340Z 20014G19KT 06/M01 A3018 RMK A01 T00641013  RH  058%=      5-min Rain = 0
KNOR 142345Z 19013KT 06/M01 A3018 RMK A01 T00611014  RH  059%=      5-min Rain = 0
KNOR 142350Z 19012G17KT 06/M01 A3018 RMK A01 T00591014  RH  060%=      5-min Rain = 0
KNOR 142355Z 19013KT 06/M01 A3018 RMK A01 T00581014  RH  060%=      5-min Rain = 0
KNOR 150000Z 19010G16KT 06/M01 A3018 RMK A01 T00551014  RH  061%=      5-min Rain = 0
KNOR 150005Z 19010KT 05/M02 A3018 RMK A01 T00521015  RH  063%=      5-min Rain = 0
KNOR 150010Z 20008KT 05/M02 A3018 RMK A01 T00491015  RH  064%=      5-min Rain = 0
KNOR 150015Z 20009KT 05/M01 A3018 RMK A01 T00471014  RH  065%=      5-min Rain = 0
KNOR 150020Z 20008KT 05/M01 A3018 RMK A01 T00471013  RH  066%=      5-min Rain = 0
KNOR 150025Z 20007KT 04/M01 A3018 RMK A01 T00441013  RH  067%=      5-min Rain = 0
KNOR 150030Z 20008KT 04/M01 A3018 RMK A01 T00421013  RH  068%=      5-min Rain = 0
KNOR 150035Z 21008KT 04/M01 A3018 RMK A01 T00411012  RH  069%=      5-min Rain = 0
KNOR 150040Z 20008KT 04/M01 A3018 RMK A01 T00381013  RH  070%=      5-min Rain = 0
KNOR 150045Z 20007KT 04/M01 A3018 RMK A01 T00371013  RH  071%=      5-min Rain = 0
KNOR 150050Z 20006KT 03/M01 A3018 RMK A01 T00331014  RH  072%=      5-min Rain = 0
KNOR 150055Z 20006KT 03/M02 A3017 RMK A01 T00291015  RH  073%=      5-min Rain = 0
KNOR 150100Z 20006KT 03/M02 A3017 RMK A01 T00261016  RH  074%=      5-min Rain = 0
KNOR 150105Z 21005KT 02/M02 A3018 RMK A01 T00241016  RH  075%=      5-min Rain = 0
KNOR 150110Z 21005KT 02/M02 A3017 RMK A01 T00231016  RH  076%=      5-min Rain = 0
KNOR 150115Z 21004KT 03/M01 A3018 RMK A01 T00251014  RH  076%=      5-min Rain = 0
KNOR 150120Z 21004KT 03/M02 A3017 RMK A01 T00251015  RH  076%=      5-min Rain = 0
KNOR 150125Z 20004KT 02/M02 A3017 RMK A01 T00231015  RH  077%=      5-min Rain = 0
KNOR 150130Z 20005KT 02/M02 A3017 RMK A01 T00211016  RH  077%=      5-min Rain = 0
KNOR 150135Z 21006KT 02/M02 A3017 RMK A01 T00171017  RH  078%=      5-min Rain = 0
KNOR 150140Z 21007KT 02/M02 A3017 RMK A01 T00151017  RH  080%=      5-min Rain = 0
KNOR 150145Z 21007KT 02/M02 A3017 RMK A01 T00161015  RH  080%=      5-min Rain = 0
KNOR 150150Z 21007KT 02/M02 A3017 RMK A01 T00171015  RH  080%=      5-min Rain = 0
KNOR 150155Z 21007KT 02/M02 A3017 RMK A01 T00151016  RH  081%=      5-min Rain = 0
KNOR 150200Z 21006KT 02/M02 A3017 RMK A01 T00151015  RH  081%=      5-min Rain = 0
KNOR 150205Z 21006KT 02/M01 A3017 RMK A01 T00161014  RH  081%=      5-min Rain = 0
KNOR 150210Z 21006KT 02/M01 A3017 RMK A01 T00151014  RH  081%=      5-min Rain = 0
KNOR 150215Z 20006KT 01/M02 A3017 RMK A01 T00141015  RH  082%=      5-min Rain = 0
KNOR 150220Z 20006KT 01/M02 A3017 RMK A01 T00121016  RH  083%=      5-min Rain = 0
KNOR 150225Z 21006KT 01/M01 A3017 RMK A01 T00131014  RH  083%=      5-min Rain = 0
KNOR 150230Z 21006KT 01/M01 A3017 RMK A01 T00121014  RH  084%=      5-min Rain = 0
KNOR 150235Z 21006KT 01/M01 A3017 RMK A01 T00111014  RH  084%=      5-min Rain = 0
KNOR 150240Z 21006KT 01/M02 A3017 RMK A01 T00091015  RH  084%=      5-min Rain = 0
KNOR 150245Z 21005KT 01/M02 A3017 RMK A01 T00071016  RH  085%=      5-min Rain = 0
KNOR 150250Z 21006KT 01/M02 A3017 RMK A01 T00081015  RH  085%=      5-min Rain = 0
KNOR 150255Z 21006KT 01/M02 A3017 RMK A01 T00071015  RH  086%=      5-min Rain = 0
KNOR 150300Z 21006KT 01/M02 A3016 RMK A01 T00071015  RH  086%=      5-min Rain = 0
KNOR 150305Z 21006KT 01/M02 A3016 RMK A01 T00071015  RH  086%=      5-min Rain = 0
KNOR 150310Z 21006KT 01/M01 A3016 RMK A01 T00071014  RH  086%=      5-min Rain = 0
KNOR 150315Z 21006KT 01/M01 A3016 RMK A01 T00071014  RH  086%=      5-min Rain = 0
KNOR 150320Z 22005KT 01/M02 A3016 RMK A01 T00051015  RH  087%=      5-min Rain = 0
KNOR 150325Z 23004KT 00/M02 A3016 RMK A01 T00031017  RH  087%=      5-min Rain = 0
KNOR 150330Z 22005KT 00/M02 A3016 RMK A01 T00021017  RH  088%=      5-min Rain = 0
KNOR 150335Z 21005KT 00/M02 A3016 RMK A01 T00011017  RH  088%=      5-min Rain = 0
KNOR 150340Z 22006KT M00/M02 A3016 RMK A01 T10011019  RH  089%=      5-min Rain = 0
KNOR 150345Z 22005KT M00/M02 A3016 RMK A01 T10021019  RH  089%=      5-min Rain = 0
KNOR 150350Z 23004KT M00/M02 A3016 RMK A01 T10011017  RH  090%=      5-min Rain = 0
KNOR 150355Z 23004KT 00/M01 A3015 RMK A01 T00011014  RH  090%=      5-min Rain = 0
KNOR 150400Z 23003KT 00/M02 A3015 RMK A01 T00021015  RH  089%=      5-min Rain = 0
KNOR 150405Z 20004KT 00/02 A3015 RMK A01 T00000-16  RH  090%=      5-min Rain = 0
KNOR 150410Z 19005KT M00/M02 A3014 RMK A01 T10011017  RH  090%=      5-min Rain = 0
KNOR 150415Z 20005KT M00/M02 A3014 RMK A01 T10011016  RH  091%=      5-min Rain = 0
KNOR 150420Z 21005KT 00/02 A3014 RMK A01 T00-00-15  RH  091%=      5-min Rain = 0
KNOR 150425Z 21004KT 00/M01 A3014 RMK A01 T00011014  RH  091%=      5-min Rain = 0
KNOR 150430Z 23003KT 00/M01 A3015 RMK A01 T00021013  RH  090%=      5-min Rain = 0
KNOR 150435Z 26002KT 00/M01 A3014 RMK A01 T00011014  RH  090%=      5-min Rain = 0
KNOR 150440Z 29002KT 00/02 A3014 RMK A01 T00000-15  RH  091%=      5-min Rain = 0
KNOR 150445Z 27002KT M00/M02 A3014 RMK A01 T10041018  RH  091%=      5-min Rain = 0
KNOR 150450Z 25003KT M00/M01 A3014 RMK A01 T10011014  RH  092%=      5-min Rain = 0
KNOR 150455Z 27002KT M00/M01 A3014 RMK A01 T10021014  RH  092%=      5-min Rain = 0
KNOR 150500Z 30003KT M00/M01 A3014 RMK A01 T10011014  RH  092%=      5-min Rain = 0
KNOR 150505Z 29004KT M00/M01 A3014 RMK A01 T10011014  RH  092%=      5-min Rain = 0
KNOR 150510Z 29003KT 00/01 A3014 RMK A01 T00000-13  RH  092%=      5-min Rain = 0
KNOR 150515Z 24002KT 00/01 A3013 RMK A01 T00000-13  RH  092%=      5-min Rain = 0
KNOR 150520Z 23002KT 00/01 A3013 RMK A01 T00-00-14  RH  092%=      5-min Rain = 0
KNOR 150525Z 25001KT 00/M01 A3013 RMK A01 T00011012  RH  092%=      5-min Rain = 0
KNOR 150530Z 30002KT 00/M01 A3013 RMK A01 T00011012  RH  092%=      5-min Rain = 0
KNOR 150535Z 33003KT M00/M02 A3013 RMK A01 T10031016  RH  091%=      5-min Rain = 0
KNOR 150540Z 33003KT M00/M02 A3013 RMK A01 T10031016  RH  092%=      5-min Rain = 0
KNOR 150545Z 33003KT M00/M02 A3013 RMK A01 T10021015  RH  092%=      5-min Rain = 0
KNOR 150550Z 33003KT M00/M02 A3012 RMK A01 T10021016  RH  092%=      5-min Rain = 0
KNOR 150555Z 35004KT M01/M02 A3012 RMK A01 T10051018  RH  092%=      5-min Rain = 0

Page generated in 0.057 seconds.